createdAt,value
2023-05-04T00:02:18.412Z,60.22
2023-05-04T00:04:45.013Z,59.93
2023-05-04T00:07:11.663Z,59.85
2023-05-04T00:09:38.464Z,58.24
2023-05-04T00:12:06.754Z,57.88
2023-05-04T00:14:33.428Z,58.75
2023-05-04T00:17:00.027Z,61.30
2023-05-04T00:19:26.590Z,65.92
2023-05-04T00:21:53.126Z,67.86
2023-05-04T00:24:19.648Z,66.77
2023-05-04T00:26:46.346Z,65.47
2023-05-04T00:29:12.934Z,64.59
2023-05-04T00:31:39.607Z,63.92
2023-05-04T00:34:06.323Z,63.60
2023-05-04T00:36:32.888Z,63.33
2023-05-04T00:38:59.487Z,63.08
2023-05-04T00:41:26.106Z,62.70
2023-05-04T00:43:52.673Z,62.52
2023-05-04T00:46:19.462Z,62.47
2023-05-04T00:48:48.514Z,62.50
2023-05-04T00:51:17.035Z,62.52
2023-05-04T00:53:44.077Z,62.71
2023-05-04T00:56:11.896Z,63.20
2023-05-04T00:58:38.507Z,63.51
2023-05-04T01:01:05.367Z,63.52
2023-05-04T01:03:33.729Z,63.81
2023-05-04T01:06:19.545Z,62.78
2023-05-04T01:08:57.882Z,61.75
2023-05-04T01:11:42.733Z,60.74
2023-05-04T01:14:10.410Z,60.21
2023-05-04T01:16:37.083Z,58.86
2023-05-04T01:19:03.987Z,57.84
2023-05-04T01:21:31.296Z,59.46
2023-05-04T01:23:59.126Z,63.39
2023-05-04T01:26:29.909Z,65.99
2023-05-04T01:29:04.918Z,65.66
2023-05-04T01:31:35.399Z,64.68
2023-05-04T01:34:03.349Z,63.84
2023-05-04T01:36:30.822Z,63.21
2023-05-04T01:39:00.218Z,62.64
2023-05-04T01:41:27.412Z,62.12
2023-05-04T01:43:54.418Z,61.48
2023-05-04T01:46:21.446Z,61.21
2023-05-04T01:48:48.159Z,60.60
2023-05-04T01:51:14.790Z,60.21
2023-05-04T01:53:41.380Z,59.83
2023-05-04T01:56:09.398Z,58.84
2023-05-04T01:58:35.993Z,58.31
2023-05-04T02:01:02.578Z,59.51
2023-05-04T02:03:29.510Z,62.60
2023-05-04T02:05:56.186Z,64.93
2023-05-04T02:08:22.932Z,64.52
2023-05-04T02:10:49.603Z,63.88
2023-05-04T02:13:16.706Z,63.29
2023-05-04T02:18:44.881Z,62.66
2023-05-04T02:21:11.613Z,62.10
2023-05-04T02:23:38.184Z,62.05
2023-05-04T02:26:04.763Z,62.03
2023-05-04T02:28:31.322Z,61.65
2023-05-04T02:30:57.970Z,61.14
2023-05-04T02:33:24.509Z,61.02
2023-05-04T02:35:51.882Z,60.54
2023-05-04T02:38:18.420Z,60.12
2023-05-04T02:40:45.010Z,58.48
2023-05-04T02:43:11.653Z,58.06
2023-05-04T02:45:38.283Z,59.28
2023-05-04T02:48:05.099Z,62.94
2023-05-04T02:50:32.080Z,65.65
2023-05-04T02:52:58.705Z,64.96
2023-05-04T02:55:25.804Z,63.85
2023-05-04T02:57:52.382Z,62.87
2023-05-04T03:00:19.103Z,62.35
2023-05-04T03:02:45.877Z,62.16
2023-05-04T03:05:12.699Z,61.69
2023-05-04T03:07:39.402Z,61.29
2023-05-04T03:10:07.353Z,60.82
2023-05-04T03:12:34.370Z,60.10
2023-05-04T03:15:01.055Z,58.82
2023-05-04T03:17:27.779Z,58.05
2023-05-04T03:19:55.238Z,59.58
2023-05-04T03:22:22.432Z,63.18
2023-05-04T03:24:49.485Z,65.93
2023-05-04T03:27:17.293Z,65.54
2023-05-04T03:29:44.163Z,64.45
2023-05-04T03:32:13.377Z,63.56
2023-05-04T03:34:40.231Z,63.12
2023-05-04T03:37:08.144Z,62.50
2023-05-04T03:39:34.851Z,62.28
2023-05-04T03:42:02.639Z,61.98
2023-05-04T03:44:29.387Z,61.71
2023-05-04T03:46:56.116Z,61.77
2023-05-04T03:49:22.705Z,61.57
2023-05-04T03:51:49.314Z,60.39
2023-05-04T03:54:15.920Z,59.91
2023-05-04T03:56:42.518Z,58.63
2023-05-04T03:59:09.195Z,58.32
2023-05-04T04:01:36.509Z,60.39
2023-05-04T04:04:03.581Z,64.52
2023-05-04T04:06:30.994Z,66.30
2023-05-04T04:08:57.603Z,65.29
2023-05-04T04:11:24.189Z,64.28
2023-05-04T04:13:51.136Z,63.26
2023-05-04T04:16:17.783Z,62.42
2023-05-04T04:18:44.523Z,61.83
2023-05-04T04:21:11.238Z,61.44
2023-05-04T04:23:38.871Z,61.10
2023-05-04T04:26:08.342Z,60.67
2023-05-04T04:28:34.963Z,60.43
2023-05-04T04:31:03.298Z,60.72
2023-05-04T04:33:29.965Z,60.30
2023-05-04T04:35:56.581Z,60.15
2023-05-04T04:38:23.234Z,59.76
2023-05-04T04:40:49.768Z,58.20
2023-05-04T04:43:16.330Z,58.38
2023-05-04T04:45:42.960Z,59.49
2023-05-04T04:48:09.992Z,60.77
2023-05-04T04:50:39.191Z,64.87
2023-05-04T04:53:05.784Z,64.96
2023-05-04T04:55:32.590Z,62.79
2023-05-04T04:57:59.172Z,60.82
2023-05-04T05:00:26.241Z,60.70
2023-05-04T05:02:52.896Z,60.43
2023-05-04T05:05:19.725Z,60.19
2023-05-04T05:07:46.338Z,59.13
2023-05-04T05:10:19.889Z,56.66
2023-05-04T05:12:51.949Z,58.11
2023-05-04T05:15:18.677Z,60.42
2023-05-04T05:17:45.282Z,59.98
2023-05-04T05:20:12.050Z,60.87
2023-05-04T05:22:39.406Z,61.36
2023-05-04T05:25:07.542Z,60.96
2023-05-04T05:27:34.646Z,61.07
2023-05-04T05:30:02.421Z,60.19
2023-05-04T05:32:29.782Z,60.12
2023-05-04T05:34:56.835Z,63.09
2023-05-04T05:37:24.150Z,64.74
2023-05-04T05:39:51.206Z,63.81
2023-05-04T05:42:18.252Z,60.38
2023-05-04T05:44:44.828Z,57.94
2023-05-04T05:47:11.395Z,57.28
2023-05-04T05:49:38.484Z,57.78
2023-05-04T05:52:05.322Z,57.09
2023-05-04T05:54:33.494Z,54.35
2023-05-04T05:57:00.206Z,51.10
2023-05-04T05:59:26.799Z,51.39
2023-05-04T06:01:53.559Z,51.11
2023-05-04T06:04:20.290Z,51.82
2023-05-04T06:06:46.982Z,53.19
2023-05-04T06:09:13.605Z,54.07
2023-05-04T06:11:40.114Z,52.67
2023-05-04T06:14:06.743Z,50.77
2023-05-04T06:16:33.387Z,46.93
2023-05-04T06:18:59.998Z,45.80
2023-05-04T06:21:26.651Z,46.02
2023-05-04T06:23:53.263Z,43.69
2023-05-04T06:26:20.211Z,40.29
2023-05-04T06:28:46.941Z,39.13
2023-05-04T06:31:13.645Z,41.08
2023-05-04T06:33:40.205Z,41.03
2023-05-04T06:36:07.441Z,44.22
2023-05-04T06:38:35.739Z,41.54
2023-05-04T06:41:04.624Z,40.19
2023-05-04T06:43:32.441Z,39.15
2023-05-04T06:46:03.871Z,35.42
2023-05-04T06:48:31.826Z,29.20
2023-05-04T06:51:00.652Z,24.73
2023-05-04T06:53:28.399Z,24.71
2023-05-04T06:55:55.253Z,22.17
2023-05-04T06:58:22.003Z,22.76
2023-05-04T07:00:48.906Z,20.28
2023-05-04T07:03:15.824Z,17.50
2023-05-04T07:05:44.563Z,16.60
2023-05-04T07:08:11.787Z,16.49
2023-05-04T07:10:38.556Z,15.45
2023-05-04T07:13:05.890Z,15.85
2023-05-04T07:15:33.897Z,15.62
2023-05-04T07:18:01.495Z,15.44
2023-05-04T07:20:28.687Z,14.70
2023-05-04T07:22:57.055Z,13.19
2023-05-04T07:25:30.497Z,12.45
2023-05-04T07:27:58.267Z,13.64
2023-05-04T07:30:25.048Z,12.94
2023-05-04T07:32:52.013Z,13.03
2023-05-04T07:35:19.246Z,13.58
2023-05-04T07:37:46.499Z,14.41
2023-05-04T07:40:14.775Z,14.17
2023-05-04T07:42:42.249Z,15.04
2023-05-04T07:45:09.861Z,14.70
2023-05-04T07:47:37.193Z,13.28
2023-05-04T07:50:07.452Z,12.49
2023-05-04T07:52:34.313Z,12.14
2023-05-04T07:55:00.932Z,11.79
2023-05-04T07:57:27.553Z,11.45
2023-05-04T07:59:55.435Z,12.07
2023-05-04T08:02:22.889Z,13.15
2023-05-04T08:04:50.046Z,14.64
2023-05-04T08:07:17.157Z,14.34
2023-05-04T08:09:43.844Z,13.17
2023-05-04T08:12:12.301Z,13.39
2023-05-04T08:14:39.908Z,12.68
2023-05-04T08:17:06.556Z,11.57
2023-05-04T08:19:33.915Z,10.84
2023-05-04T08:22:00.747Z,11.31
2023-05-04T08:24:27.456Z,11.52
2023-05-04T08:27:06.626Z,10.94
2023-05-04T08:29:37.210Z,10.85
2023-05-04T08:32:04.316Z,10.96
2023-05-04T08:34:31.461Z,11.58
2023-05-04T08:36:58.306Z,10.49
2023-05-04T08:39:25.220Z,10.97
2023-05-04T08:41:51.870Z,11.64
2023-05-04T08:44:21.165Z,11.39
2023-05-04T08:46:54.291Z,10.99
2023-05-04T08:49:21.786Z,10.73
2023-05-04T08:51:51.270Z,10.81
2023-05-04T08:54:18.569Z,10.48
2023-05-04T08:56:47.224Z,9.73
2023-05-04T08:59:22.055Z,10.09
2023-05-04T09:01:53.060Z,10.18
2023-05-04T09:04:20.708Z,9.64
2023-05-04T09:06:47.528Z,9.94
2023-05-04T09:09:14.626Z,9.47
2023-05-04T09:11:41.428Z,10.03
2023-05-04T09:14:08.180Z,10.42
2023-05-04T09:16:36.617Z,9.91
2023-05-04T09:19:04.819Z,9.36
2023-05-04T09:21:32.211Z,8.09
2023-05-04T09:23:59.316Z,8.43
2023-05-04T09:26:30.629Z,7.96
2023-05-04T09:29:09.725Z,8.04
2023-05-04T09:31:48.057Z,8.27
2023-05-04T09:34:15.144Z,8.44
2023-05-04T09:36:42.288Z,8.56
2023-05-04T09:39:11.500Z,8.39
2023-05-04T09:41:38.458Z,7.66
2023-05-04T09:44:05.465Z,7.25
2023-05-04T09:46:33.027Z,7.53
2023-05-04T09:49:00.801Z,7.94
2023-05-04T09:51:27.622Z,6.67
2023-05-04T09:53:54.657Z,6.54
2023-05-04T09:56:37.591Z,7.26
2023-05-04T09:59:05.341Z,7.30
2023-05-04T10:01:32.442Z,7.79
2023-05-04T10:03:59.418Z,7.80
2023-05-04T10:06:28.949Z,8.35
2023-05-04T10:08:56.679Z,7.79
2023-05-04T10:11:25.756Z,7.68
2023-05-04T10:13:54.607Z,7.30
2023-05-04T10:16:46.061Z,7.30
2023-05-04T10:19:38.352Z,7.48
2023-05-04T10:22:32.942Z,7.58
2023-05-04T10:25:22.506Z,7.60
2023-05-04T10:27:49.097Z,7.37
2023-05-04T10:30:18.521Z,7.06
2023-05-04T10:32:45.871Z,7.21
2023-05-04T10:35:12.837Z,7.12
2023-05-04T10:37:51.285Z,7.30
2023-05-04T10:40:18.219Z,6.62
2023-05-04T10:42:45.234Z,7.23
2023-05-04T10:45:13.091Z,7.32
2023-05-04T10:47:40.939Z,7.13
2023-05-04T10:50:14.694Z,7.06
2023-05-04T10:52:48.935Z,6.94
2023-05-04T10:55:17.135Z,7.89
2023-05-04T10:58:02.247Z,8.43
2023-05-04T11:00:46.604Z,8.42
2023-05-04T11:03:14.530Z,8.37
2023-05-04T11:05:52.748Z,8.93
2023-05-04T11:08:26.507Z,9.18
2023-05-04T11:11:05.845Z,9.14
2023-05-04T11:13:41.500Z,8.97
2023-05-04T11:16:12.370Z,9.07
2023-05-04T11:18:39.500Z,8.71
2023-05-04T11:21:06.257Z,9.24
2023-05-04T11:23:33.492Z,9.52
2023-05-04T11:26:12.311Z,9.05
2023-05-04T11:28:39.617Z,9.63
2023-05-04T11:31:17.445Z,9.99
2023-05-04T11:33:51.570Z,9.60
2023-05-04T11:36:19.433Z,9.41
2023-05-04T11:38:47.007Z,8.93
2023-05-04T11:41:13.876Z,8.99
2023-05-04T11:43:43.661Z,8.39
2023-05-04T11:46:11.203Z,8.06
2023-05-04T11:48:38.900Z,7.86
2023-05-04T11:51:06.567Z,8.64
2023-05-04T11:53:41.610Z,9.06
2023-05-04T11:56:09.850Z,9.12
2023-05-04T11:58:37.265Z,8.86
2023-05-04T12:01:04.965Z,8.84
2023-05-04T12:03:48.623Z,8.68
2023-05-04T12:06:33.059Z,8.36
2023-05-04T12:09:06.910Z,8.40
2023-05-04T12:11:39.528Z,7.87
2023-05-04T12:14:12.703Z,8.96
2023-05-04T12:16:43.040Z,8.89
2023-05-04T12:19:15.728Z,9.42
2023-05-04T12:21:52.403Z,9.50
2023-05-04T12:24:25.199Z,9.45
2023-05-04T12:26:54.257Z,9.48
2023-05-04T12:29:23.723Z,9.99
2023-05-04T12:31:51.927Z,10.20
2023-05-04T12:34:21.757Z,11.30
2023-05-04T12:36:52.341Z,11.06
2023-05-04T12:39:21.758Z,11.31
2023-05-04T12:41:50.795Z,11.58
2023-05-04T12:44:21.278Z,11.55
2023-05-04T12:46:50.214Z,11.87
2023-05-04T12:49:19.051Z,11.30
2023-05-04T12:51:48.155Z,11.96
2023-05-04T12:54:17.773Z,12.95
2023-05-04T12:56:46.751Z,12.85
2023-05-04T12:59:15.784Z,12.09
2023-05-04T13:01:45.189Z,11.69
2023-05-04T13:04:14.137Z,11.83
2023-05-04T13:14:11.191Z,12.78
2023-05-04T13:16:37.792Z,12.92
2023-05-04T13:19:04.949Z,13.25
2023-05-04T13:21:31.920Z,13.64
2023-05-04T13:23:59.378Z,14.80
2023-05-04T13:26:26.154Z,15.46
2023-05-04T13:28:52.887Z,15.96
2023-05-04T13:31:19.628Z,16.50
2023-05-04T13:33:46.726Z,15.95
2023-05-04T13:36:13.509Z,16.70
2023-05-04T13:38:40.121Z,17.24
2023-05-04T13:41:06.821Z,16.72
2023-05-04T13:43:33.420Z,17.10
2023-05-04T13:46:04.431Z,17.36
2023-05-04T13:48:32.916Z,17.42
2023-05-04T13:50:59.593Z,18.07
2023-05-04T13:53:26.446Z,17.86
2023-05-04T13:55:53.087Z,17.61
2023-05-04T13:58:19.675Z,17.37
2023-05-04T14:00:46.718Z,17.96
2023-05-04T14:03:13.329Z,17.99
2023-05-04T14:05:39.958Z,18.58
2023-05-04T14:08:06.654Z,18.20
2023-05-04T14:10:34.934Z,18.97
2023-05-04T14:13:02.642Z,19.89
2023-05-04T14:15:29.495Z,20.01
2023-05-04T14:17:56.612Z,19.98
2023-05-04T14:20:23.300Z,19.84
2023-05-04T14:22:49.865Z,19.64
2023-05-04T14:25:16.571Z,19.51
2023-05-04T14:27:43.513Z,19.67
2023-05-04T14:30:10.953Z,19.86
2023-05-04T14:32:37.523Z,20.18
2023-05-04T14:35:08.518Z,20.51
2023-05-04T14:37:38.119Z,20.84
2023-05-04T14:40:06.591Z,20.96
2023-05-04T14:42:33.473Z,20.74
2023-05-04T14:45:00.068Z,21.50
2023-05-04T14:47:27.642Z,21.27
2023-05-04T14:49:54.398Z,21.82
2023-05-04T14:52:21.267Z,21.54
2023-05-04T14:54:47.793Z,22.59
2023-05-04T14:57:14.440Z,21.82
2023-05-04T14:59:42.135Z,22.28
2023-05-04T15:02:09.194Z,22.14
2023-05-04T15:04:36.441Z,23.42
2023-05-04T15:07:04.610Z,23.83
2023-05-04T15:09:31.677Z,23.62
2023-05-04T15:11:58.362Z,23.46
2023-05-04T15:14:26.425Z,23.50
2023-05-04T15:16:53.069Z,23.80
2023-05-04T15:19:21.097Z,24.59
2023-05-04T15:21:48.639Z,24.00
2023-05-04T15:24:15.242Z,23.22
2023-05-04T15:26:41.834Z,23.87
2023-05-04T15:29:08.792Z,24.21
2023-05-04T15:31:35.995Z,24.89
2023-05-04T15:34:02.799Z,26.26
2023-05-04T15:36:31.745Z,25.67
2023-05-04T15:38:58.383Z,25.37
2023-05-04T15:41:24.978Z,25.88
2023-05-04T15:43:51.591Z,27.08
2023-05-04T15:46:18.165Z,26.11
2023-05-04T15:48:44.930Z,25.95
2023-05-04T15:51:14.970Z,25.57
2023-05-04T15:53:41.685Z,26.71
2023-05-04T15:56:08.434Z,25.73
2023-05-04T15:58:35.080Z,25.61
2023-05-04T16:01:04.037Z,25.86
2023-05-04T16:03:31.815Z,26.39
2023-05-04T16:05:58.600Z,27.05
2023-05-04T16:08:25.998Z,27.03
2023-05-04T16:10:54.124Z,26.51
2023-05-04T16:13:20.895Z,26.25
2023-05-04T16:15:51.572Z,26.51
2023-05-04T16:18:18.582Z,27.06
2023-05-04T16:20:46.291Z,27.23
2023-05-04T16:23:15.207Z,28.16
2023-05-04T16:25:42.429Z,27.91
2023-05-04T16:28:10.268Z,28.66
2023-05-04T16:30:37.855Z,28.28
2023-05-04T16:33:04.664Z,28.85
2023-05-04T16:35:32.189Z,28.47
2023-05-04T16:37:59.023Z,28.28
2023-05-04T16:40:25.734Z,28.10
2023-05-04T16:42:52.415Z,28.55
2023-05-04T16:45:19.557Z,28.36
2023-05-04T16:47:46.413Z,28.28
2023-05-04T16:50:14.318Z,28.45
2023-05-04T16:52:41.955Z,29.06
2023-05-04T16:55:12.063Z,28.96
2023-05-04T16:57:39.159Z,29.60
2023-05-04T17:00:07.109Z,30.13
2023-05-04T17:02:34.346Z,30.30
2023-05-04T17:05:01.169Z,30.29
2023-05-04T17:07:28.529Z,30.65
2023-05-04T17:09:55.152Z,31.12
2023-05-04T17:12:23.423Z,31.22
2023-05-04T17:14:50.210Z,31.12
2023-05-04T17:17:16.849Z,31.73
2023-05-04T17:19:43.414Z,31.49
2023-05-04T17:22:11.204Z,31.70
2023-05-04T17:24:38.067Z,31.63
2023-05-04T17:27:04.975Z,31.91
2023-05-04T17:29:31.757Z,32.45
2023-05-04T17:31:58.703Z,32.09
2023-05-04T17:34:25.346Z,32.33
2023-05-04T17:36:52.206Z,32.55
2023-05-04T17:39:19.904Z,33.26
2023-05-04T17:41:48.801Z,33.44
2023-05-04T17:44:16.433Z,33.99
2023-05-04T17:46:43.743Z,34.41
2023-05-04T17:49:10.650Z,34.74
2023-05-04T17:51:37.434Z,35.90
2023-05-04T17:54:04.209Z,35.79
2023-05-04T17:56:31.032Z,35.90
2023-05-04T17:58:57.735Z,36.38
2023-05-04T18:01:24.500Z,36.35
2023-05-04T18:03:51.235Z,36.61
2023-05-04T18:06:18.089Z,37.20
2023-05-04T18:08:44.938Z,37.89
2023-05-04T18:11:12.352Z,37.78
2023-05-04T18:13:39.001Z,38.75
2023-05-04T18:16:05.920Z,38.20
2023-05-04T18:18:33.310Z,39.35
2023-05-04T18:21:00.932Z,39.48
2023-05-04T18:23:27.670Z,39.61
2023-05-04T18:25:54.388Z,40.03
2023-05-04T18:28:21.149Z,40.48
2023-05-04T18:30:48.085Z,41.23
2023-05-04T18:33:14.705Z,42.04
2023-05-04T18:35:41.915Z,41.68
2023-05-04T18:38:08.608Z,42.19
2023-05-04T18:40:35.390Z,42.98
2023-05-04T18:43:02.016Z,43.65
2023-05-04T18:45:28.677Z,44.16
2023-05-04T18:47:55.425Z,45.20
2023-05-04T18:50:22.010Z,45.39
2023-05-04T18:52:48.638Z,45.74
2023-05-04T18:55:15.242Z,46.03
2023-05-04T18:57:41.842Z,45.83
2023-05-04T19:00:09.304Z,46.02
2023-05-04T19:02:37.177Z,46.79
2023-05-04T19:05:04.010Z,47.52
2023-05-04T19:07:30.673Z,47.58
2023-05-04T19:09:57.657Z,47.72
2023-05-04T19:12:24.563Z,47.71
2023-05-04T19:14:51.325Z,48.02
2023-05-04T19:17:18.727Z,48.46
2023-05-04T19:19:45.594Z,49.13
2023-05-04T19:22:13.403Z,49.01
2023-05-04T19:24:40.152Z,48.64
2023-05-04T19:27:07.378Z,49.80
2023-05-04T19:29:34.218Z,51.31
2023-05-04T19:32:05.585Z,50.41
2023-05-04T19:34:42.996Z,50.33
2023-05-04T19:37:09.905Z,51.29
2023-05-04T19:39:36.791Z,51.48
2023-05-04T19:42:03.625Z,50.94
2023-05-04T19:44:30.312Z,51.96
2023-05-04T19:46:57.229Z,51.61
2023-05-04T19:49:25.037Z,51.58
2023-05-04T19:51:51.881Z,51.23
2023-05-04T19:54:18.660Z,50.96
2023-05-04T19:56:45.506Z,51.08
2023-05-04T19:59:12.343Z,51.13
2023-05-04T20:01:39.085Z,51.49
2023-05-04T20:04:08.300Z,52.28
2023-05-04T20:06:36.166Z,51.80
2023-05-04T20:09:03.967Z,52.45
2023-05-04T20:11:31.040Z,52.37
2023-05-04T20:13:57.901Z,53.31
2023-05-04T20:16:24.698Z,53.43
2023-05-04T20:18:51.350Z,53.20
2023-05-04T20:21:18.088Z,53.35
2023-05-04T20:23:45.141Z,53.74
2023-05-04T20:26:12.108Z,54.39
2023-05-04T20:28:39.285Z,54.75
2023-05-04T20:31:07.697Z,55.10
2023-05-04T20:33:34.791Z,55.66
2023-05-04T20:36:02.540Z,55.61
2023-05-04T20:38:29.259Z,55.82
2023-05-04T20:40:56.059Z,55.55
2023-05-04T20:43:23.009Z,55.28
2023-05-04T20:45:49.736Z,55.59
2023-05-04T20:48:16.582Z,55.99
2023-05-04T20:50:43.418Z,56.53
2023-05-04T20:53:10.097Z,57.39
2023-05-04T20:55:37.275Z,57.21
2023-05-04T20:58:03.934Z,58.07
2023-05-04T21:00:32.382Z,57.19
2023-05-04T21:03:00.530Z,56.88
2023-05-04T21:05:27.460Z,57.37
2023-05-04T21:07:54.447Z,57.38
2023-05-04T21:10:21.433Z,57.33
2023-05-04T21:12:48.413Z,57.33
2023-05-04T21:15:15.300Z,57.59
2023-05-04T21:17:42.092Z,58.02
2023-05-04T21:20:09.580Z,57.96
2023-05-04T21:22:37.203Z,58.04
2023-05-04T21:25:04.517Z,57.87
2023-05-04T21:27:31.758Z,58.31
2023-05-04T21:29:58.727Z,58.71
2023-05-04T21:32:29.197Z,59.11
2023-05-04T21:34:56.382Z,59.60
2023-05-04T21:37:23.071Z,60.05
2023-05-04T21:39:55.793Z,62.96
2023-05-04T21:42:23.876Z,65.25
2023-05-04T21:44:55.314Z,63.65
2023-05-04T21:47:25.806Z,61.13
2023-05-04T21:49:53.849Z,56.97
2023-05-04T21:52:21.128Z,55.22
2023-05-04T21:54:47.818Z,55.66
2023-05-04T21:57:14.876Z,55.85
2023-05-04T21:59:41.561Z,56.92
2023-05-04T22:02:09.952Z,57.53
2023-05-04T22:04:36.861Z,58.51
2023-05-04T22:07:03.613Z,59.16
2023-05-04T22:09:30.288Z,58.94
2023-05-04T22:11:57.127Z,59.45
2023-05-04T22:14:23.714Z,59.51
2023-05-04T22:16:52.982Z,60.01
2023-05-04T22:19:19.653Z,59.69
2023-05-04T22:21:46.278Z,60.29
2023-05-04T22:24:12.870Z,63.30
2023-05-04T22:26:40.834Z,64.54
2023-05-04T22:29:07.383Z,62.99
2023-05-04T22:31:33.965Z,60.79
2023-05-04T22:34:00.816Z,57.56
2023-05-04T22:36:27.597Z,55.80
2023-05-04T22:38:54.166Z,56.17
2023-05-04T22:41:21.288Z,57.18
2023-05-04T22:43:47.894Z,58.06
2023-05-04T22:46:16.842Z,58.15
2023-05-04T22:48:46.711Z,58.21
2023-05-04T22:51:14.727Z,58.55
2023-05-04T22:53:41.370Z,59.43
2023-05-04T22:56:08.517Z,59.50
2023-05-04T22:58:35.540Z,59.75
2023-05-04T23:01:02.812Z,59.93
2023-05-04T23:03:29.489Z,59.96
2023-05-04T23:05:59.910Z,63.01
2023-05-04T23:08:26.552Z,64.28
2023-05-04T23:10:53.199Z,62.25
2023-05-04T23:13:19.772Z,59.25
2023-05-04T23:15:46.761Z,56.95
2023-05-04T23:18:15.435Z,57.49
2023-05-04T23:20:42.872Z,58.29
2023-05-04T23:23:09.438Z,58.49
2023-05-04T23:25:36.398Z,58.76
2023-05-04T23:28:03.644Z,59.10
2023-05-04T23:30:30.338Z,59.95
2023-05-04T23:32:57.839Z,59.87
2023-05-04T23:35:24.493Z,60.41
2023-05-04T23:37:51.236Z,60.39
2023-05-04T23:40:17.858Z,60.76
2023-05-04T23:42:48.097Z,61.00
2023-05-04T23:45:14.699Z,63.27
2023-05-04T23:47:41.249Z,64.42
2023-05-04T23:50:08.629Z,62.69
2023-05-04T23:52:35.380Z,60.76
2023-05-04T23:55:02.187Z,57.68
2023-05-04T23:57:28.731Z,55.28
2023-05-04T23:59:55.395Z,55.32
